sensor_id;sensor_type;location;lat;lon;timestamp;temperature;humidity
33825;DHT22;20127;48.962;8.342;2022-07-06T00:01:11;18.90;78.90
33825;DHT22;20127;48.962;8.342;2022-07-06T00:04:14;18.70;79.50
33825;DHT22;20127;48.962;8.342;2022-07-06T00:07:16;18.70;80.10
33825;DHT22;20127;48.962;8.342;2022-07-06T00:10:18;18.60;80.70
33825;DHT22;20127;48.962;8.342;2022-07-06T00:13:29;18.60;81.50
33825;DHT22;20127;48.962;8.342;2022-07-06T00:16:32;18.50;81.70
33825;DHT22;20127;48.962;8.342;2022-07-06T00:19:35;18.40;81.60
33825;DHT22;20127;48.962;8.342;2022-07-06T00:22:37;18.30;81.60
33825;DHT22;20127;48.962;8.342;2022-07-06T00:25:39;18.40;82.10
33825;DHT22;20127;48.962;8.342;2022-07-06T00:28:40;18.40;82.20
33825;DHT22;20127;48.962;8.342;2022-07-06T00:31:42;18.40;83.40
33825;DHT22;20127;48.962;8.342;2022-07-06T00:34:45;18.40;83.10
33825;DHT22;20127;48.962;8.342;2022-07-06T00:37:47;18.30;83.50
33825;DHT22;20127;48.962;8.342;2022-07-06T00:40:49;18.30;83.80
33825;DHT22;20127;48.962;8.342;2022-07-06T00:43:52;18.30;84.10
33825;DHT22;20127;48.962;8.342;2022-07-06T00:46:55;18.30;84.70
33825;DHT22;20127;48.962;8.342;2022-07-06T00:49:58;18.20;85.10
33825;DHT22;20127;48.962;8.342;2022-07-06T00:53:16;18.10;85.30
33825;DHT22;20127;48.962;8.342;2022-07-06T00:56:18;18.10;85.50
33825;DHT22;20127;48.962;8.342;2022-07-06T00:59:20;18.10;86.20
33825;DHT22;20127;48.962;8.342;2022-07-06T01:02:22;18.00;86.60
33825;DHT22;20127;48.962;8.342;2022-07-06T01:05:25;17.90;86.90
33825;DHT22;20127;48.962;8.342;2022-07-06T01:08:27;17.80;87.50
33825;DHT22;20127;48.962;8.342;2022-07-06T01:11:29;17.80;88.00
33825;DHT22;20127;48.962;8.342;2022-07-06T01:14:32;17.80;88.10
33825;DHT22;20127;48.962;8.342;2022-07-06T01:17:34;17.80;88.60
33825;DHT22;20127;48.962;8.342;2022-07-06T01:20:37;17.70;89.10
33825;DHT22;20127;48.962;8.342;2022-07-06T01:23:40;17.60;89.50
33825;DHT22;20127;48.962;8.342;2022-07-06T01:26:42;17.60;90.00
33825;DHT22;20127;48.962;8.342;2022-07-06T01:29:44;17.50;90.10
33825;DHT22;20127;48.962;8.342;2022-07-06T01:32:46;17.50;90.30
33825;DHT22;20127;48.962;8.342;2022-07-06T01:35:49;17.50;90.40
33825;DHT22;20127;48.962;8.342;2022-07-06T01:38:52;17.50;90.40
33825;DHT22;20127;48.962;8.342;2022-07-06T01:41:54;17.60;90.40
33825;DHT22;20127;48.962;8.342;2022-07-06T01:44:56;17.60;90.40
33825;DHT22;20127;48.962;8.342;2022-07-06T01:47:58;17.60;90.50
33825;DHT22;20127;48.962;8.342;2022-07-06T01:51:01;17.60;90.70
33825;DHT22;20127;48.962;8.342;2022-07-06T01:54:03;17.50;90.90
33825;DHT22;20127;48.962;8.342;2022-07-06T01:57:05;17.40;91.10
33825;DHT22;20127;48.962;8.342;2022-07-06T02:00:08;17.30;91.10
33825;DHT22;20127;48.962;8.342;2022-07-06T02:03:10;17.30;91.30
33825;DHT22;20127;48.962;8.342;2022-07-06T02:06:13;17.20;91.40
33825;DHT22;20127;48.962;8.342;2022-07-06T02:09:14;17.20;91.60
33825;DHT22;20127;48.962;8.342;2022-07-06T02:12:16;17.10;91.80
33825;DHT22;20127;48.962;8.342;2022-07-06T02:15:18;17.00;92.10
33825;DHT22;20127;48.962;8.342;2022-07-06T02:18:20;17.00;92.30
33825;DHT22;20127;48.962;8.342;2022-07-06T02:21:23;16.90;92.50
33825;DHT22;20127;48.962;8.342;2022-07-06T02:24:25;16.80;92.60
33825;DHT22;20127;48.962;8.342;2022-07-06T02:27:26;16.70;92.80
33825;DHT22;20127;48.962;8.342;2022-07-06T02:30:28;16.60;93.20
33825;DHT22;20127;48.962;8.342;2022-07-06T02:33:30;16.50;93.30
33825;DHT22;20127;48.962;8.342;2022-07-06T02:36:33;16.50;93.60
33825;DHT22;20127;48.962;8.342;2022-07-06T02:39:35;16.40;93.80
33825;DHT22;20127;48.962;8.342;2022-07-06T02:42:37;16.40;94.00
33825;DHT22;20127;48.962;8.342;2022-07-06T02:45:39;16.40;94.10
33825;DHT22;20127;48.962;8.342;2022-07-06T02:48:40;16.40;94.20
33825;DHT22;20127;48.962;8.342;2022-07-06T02:51:43;16.30;94.30
33825;DHT22;20127;48.962;8.342;2022-07-06T02:54:45;16.30;94.60
33825;DHT22;20127;48.962;8.342;2022-07-06T02:57:47;16.20;94.70
33825;DHT22;20127;48.962;8.342;2022-07-06T03:00:49;16.20;94.80
33825;DHT22;20127;48.962;8.342;2022-07-06T03:03:50;16.20;94.90
33825;DHT22;20127;48.962;8.342;2022-07-06T03:06:53;16.20;94.90
33825;DHT22;20127;48.962;8.342;2022-07-06T03:09:55;16.10;95.00
33825;DHT22;20127;48.962;8.342;2022-07-06T03:12:57;16.10;95.10
33825;DHT22;20127;48.962;8.342;2022-07-06T03:15:58;16.10;95.10
33825;DHT22;20127;48.962;8.342;2022-07-06T03:19:00;16.20;95.10
33825;DHT22;20127;48.962;8.342;2022-07-06T03:22:03;16.20;95.20
33825;DHT22;20127;48.962;8.342;2022-07-06T03:25:06;16.20;95.10
33825;DHT22;20127;48.962;8.342;2022-07-06T03:28:07;16.20;95.00
33825;DHT22;20127;48.962;8.342;2022-07-06T03:31:09;16.20;95.00
33825;DHT22;20127;48.962;8.342;2022-07-06T03:34:11;16.30;95.10
33825;DHT22;20127;48.962;8.342;2022-07-06T03:37:14;16.30;95.20
33825;DHT22;20127;48.962;8.342;2022-07-06T03:40:15;16.30;95.10
33825;DHT22;20127;48.962;8.342;2022-07-06T03:43:17;16.30;95.00
33825;DHT22;20127;48.962;8.342;2022-07-06T03:46:19;16.40;94.90
33825;DHT22;20127;48.962;8.342;2022-07-06T03:49:21;16.40;94.90
33825;DHT22;20127;48.962;8.342;2022-07-06T03:52:24;16.50;94.90
33825;DHT22;20127;48.962;8.342;2022-07-06T03:55:26;16.50;94.90
33825;DHT22;20127;48.962;8.342;2022-07-06T03:58:27;16.50;94.80
33825;DHT22;20127;48.962;8.342;2022-07-06T04:01:29;16.70;94.60
33825;DHT22;20127;48.962;8.342;2022-07-06T04:04:31;16.80;94.10
33825;DHT22;20127;48.962;8.342;2022-07-06T04:07:36;17.00;93.60
33825;DHT22;20127;48.962;8.342;2022-07-06T04:10:37;17.20;93.20
33825;DHT22;20127;48.962;8.342;2022-07-06T04:13:39;17.40;92.60
33825;DHT22;20127;48.962;8.342;2022-07-06T04:16:41;17.50;92.30
33825;DHT22;20127;48.962;8.342;2022-07-06T04:19:43;18.20;91.20
33825;DHT22;20127;48.962;8.342;2022-07-06T04:22:46;19.30;88.40
33825;DHT22;20127;48.962;8.342;2022-07-06T04:25:47;20.00;84.50
33825;DHT22;20127;48.962;8.342;2022-07-06T04:28:49;20.00;83.10
33825;DHT22;20127;48.962;8.342;2022-07-06T04:31:51;19.80;82.60
33825;DHT22;20127;48.962;8.342;2022-07-06T04:34:53;19.60;83.10
33825;DHT22;20127;48.962;8.342;2022-07-06T04:37:56;19.50;83.60
33825;DHT22;20127;48.962;8.342;2022-07-06T04:40:57;19.50;82.60
33825;DHT22;20127;48.962;8.342;2022-07-06T04:43:59;19.60;82.10
33825;DHT22;20127;48.962;8.342;2022-07-06T04:47:01;20.10;81.10
33825;DHT22;20127;48.962;8.342;2022-07-06T04:50:03;21.80;75.00
33825;DHT22;20127;48.962;8.342;2022-07-06T04:53:06;23.50;69.10
33825;DHT22;20127;48.962;8.342;2022-07-06T04:56:08;24.60;63.30
33825;DHT22;20127;48.962;8.342;2022-07-06T04:59:10;25.60;59.90
33825;DHT22;20127;48.962;8.342;2022-07-06T05:02:11;26.80;55.60
33825;DHT22;20127;48.962;8.342;2022-07-06T05:05:13;27.00;53.50
33825;DHT22;20127;48.962;8.342;2022-07-06T05:08:16;27.40;52.00
33825;DHT22;20127;48.962;8.342;2022-07-06T05:11:49;28.20;49.60
33825;DHT22;20127;48.962;8.342;2022-07-06T05:15:28;28.80;47.20
33825;DHT22;20127;48.962;8.342;2022-07-06T05:18:48;28.70;46.10
33825;DHT22;20127;48.962;8.342;2022-07-06T05:22:07;29.20;44.90
33825;DHT22;20127;48.962;8.342;2022-07-06T05:25:18;29.80;43.60
33825;DHT22;20127;48.962;8.342;2022-07-06T05:28:23;30.30;42.20
33825;DHT22;20127;48.962;8.342;2022-07-06T05:31:47;30.90;41.30
33825;DHT22;20127;48.962;8.342;2022-07-06T05:34:50;31.30;40.70
33825;DHT22;20127;48.962;8.342;2022-07-06T05:37:51;32.10;39.80
33825;DHT22;20127;48.962;8.342;2022-07-06T05:40:58;32.70;38.40
33825;DHT22;20127;48.962;8.342;2022-07-06T05:44:56;33.10;37.40
33825;DHT22;20127;48.962;8.342;2022-07-06T05:48:26;32.20;37.70
33825;DHT22;20127;48.962;8.342;2022-07-06T05:52:13;31.30;39.50
33825;DHT22;20127;48.962;8.342;2022-07-06T05:59:54;34.80;35.70
33825;DHT22;20127;48.962;8.342;2022-07-06T06:03:11;36.40;33.80
33825;DHT22;20127;48.962;8.342;2022-07-06T06:14:58;33.00;36.10
33825;DHT22;20127;48.962;8.342;2022-07-06T06:22:34;31.80;37.30
33825;DHT22;20127;48.962;8.342;2022-07-06T07:33:08;38.20;30.30
33825;DHT22;20127;48.962;8.342;2022-07-06T07:36:10;39.00;30.40
33825;DHT22;20127;48.962;8.342;2022-07-06T07:39:25;38.30;30.10
33825;DHT22;20127;48.962;8.342;2022-07-06T07:42:29;35.80;32.10
33825;DHT22;20127;48.962;8.342;2022-07-06T07:46:30;33.60;34.40
33825;DHT22;20127;48.962;8.342;2022-07-06T07:50:11;31.90;36.60
33825;DHT22;20127;48.962;8.342;2022-07-06T08:01:56;28.40;42.10
33825;DHT22;20127;48.962;8.342;2022-07-06T08:04:58;27.90;43.40
33825;DHT22;20127;48.962;8.342;2022-07-06T08:08:02;27.60;43.20
33825;DHT22;20127;48.962;8.342;2022-07-06T08:15:07;27.30;44.30
33825;DHT22;20127;48.962;8.342;2022-07-06T08:18:30;27.20;44.30
33825;DHT22;20127;48.962;8.342;2022-07-06T08:29:57;27.20;45.00
33825;DHT22;20127;48.962;8.342;2022-07-06T08:33:06;27.20;45.00
33825;DHT22;20127;48.962;8.342;2022-07-06T08:36:08;27.30;45.10
33825;DHT22;20127;48.962;8.342;2022-07-06T08:39:12;27.30;44.90
33825;DHT22;20127;48.962;8.342;2022-07-06T08:42:16;27.30;44.90
33825;DHT22;20127;48.962;8.342;2022-07-06T08:45:20;27.30;45.20
33825;DHT22;20127;48.962;8.342;2022-07-06T08:48:23;27.40;45.10
33825;DHT22;20127;48.962;8.342;2022-07-06T08:51:36;27.40;44.90
33825;DHT22;20127;48.962;8.342;2022-07-06T08:54:38;27.30;45.00
33825;DHT22;20127;48.962;8.342;2022-07-06T08:57:41;27.40;44.90
33825;DHT22;20127;48.962;8.342;2022-07-06T09:00:45;27.40;44.70
33825;DHT22;20127;48.962;8.342;2022-07-06T09:03:52;27.50;44.70
33825;DHT22;20127;48.962;8.342;2022-07-06T09:07:05;27.70;44.50
33825;DHT22;20127;48.962;8.342;2022-07-06T09:10:08;28.00;44.30
33825;DHT22;20127;48.962;8.342;2022-07-06T09:13:13;28.10;43.80
33825;DHT22;20127;48.962;8.342;2022-07-06T09:16:26;28.20;44.00
33825;DHT22;20127;48.962;8.342;2022-07-06T09:19:40;28.40;43.30
33825;DHT22;20127;48.962;8.342;2022-07-06T09:22:42;28.30;43.10
33825;DHT22;20127;48.962;8.342;2022-07-06T09:25:47;28.30;43.00
33825;DHT22;20127;48.962;8.342;2022-07-06T09:32:20;28.60;42.70
33825;DHT22;20127;48.962;8.342;2022-07-06T09:35:25;28.80;42.40
33825;DHT22;20127;48.962;8.342;2022-07-06T09:38:27;28.80;42.50
33825;DHT22;20127;48.962;8.342;2022-07-06T09:41:33;28.90;41.90
33825;DHT22;20127;48.962;8.342;2022-07-06T09:44:38;28.90;42.00
33825;DHT22;20127;48.962;8.342;2022-07-06T09:47:47;29.00;41.70
33825;DHT22;20127;48.962;8.342;2022-07-06T09:50:50;29.20;41.40
33825;DHT22;20127;48.962;8.342;2022-07-06T09:53:53;29.20;41.10
33825;DHT22;20127;48.962;8.342;2022-07-06T09:56:59;28.90;41.30
33825;DHT22;20127;48.962;8.342;2022-07-06T10:00:01;28.70;41.60
33825;DHT22;20127;48.962;8.342;2022-07-06T10:03:06;28.50;42.00
33825;DHT22;20127;48.962;8.342;2022-07-06T10:06:11;28.30;42.10
33825;DHT22;20127;48.962;8.342;2022-07-06T10:09:20;28.30;42.30
33825;DHT22;20127;48.962;8.342;2022-07-06T10:12:33;28.40;42.20
33825;DHT22;20127;48.962;8.342;2022-07-06T10:15:48;28.80;41.50
33825;DHT22;20127;48.962;8.342;2022-07-06T10:19:23;29.30;41.10
33825;DHT22;20127;48.962;8.342;2022-07-06T10:23:07;30.20;40.70
33825;DHT22;20127;48.962;8.342;2022-07-06T10:35:09;30.20;40.40
33825;DHT22;20127;48.962;8.342;2022-07-06T10:38:21;30.30;39.80
33825;DHT22;20127;48.962;8.342;2022-07-06T10:41:44;30.10;40.00
33825;DHT22;20127;48.962;8.342;2022-07-06T10:44:49;30.00;40.20
33825;DHT22;20127;48.962;8.342;2022-07-06T10:48:17;29.70;40.60
33825;DHT22;20127;48.962;8.342;2022-07-06T10:51:26;29.70;41.00
33825;DHT22;20127;48.962;8.342;2022-07-06T10:54:31;29.80;41.20
33825;DHT22;20127;48.962;8.342;2022-07-06T10:57:52;30.00;40.90
33825;DHT22;20127;48.962;8.342;2022-07-06T11:01:01;30.40;40.70
33825;DHT22;20127;48.962;8.342;2022-07-06T11:04:09;30.60;40.20
33825;DHT22;20127;48.962;8.342;2022-07-06T11:07:20;31.00;40.00
33825;DHT22;20127;48.962;8.342;2022-07-06T11:10:25;31.30;39.40
33825;DHT22;20127;48.962;8.342;2022-07-06T11:13:27;31.50;38.70
33825;DHT22;20127;48.962;8.342;2022-07-06T11:16:30;31.80;38.60
33825;DHT22;20127;48.962;8.342;2022-07-06T11:19:34;31.90;38.30
33825;DHT22;20127;48.962;8.342;2022-07-06T11:22:38;31.60;38.40
33825;DHT22;20127;48.962;8.342;2022-07-06T11:25:40;31.30;38.80
33825;DHT22;20127;48.962;8.342;2022-07-06T11:28:45;31.30;39.00
33825;DHT22;20127;48.962;8.342;2022-07-06T11:31:49;31.60;39.10
33825;DHT22;20127;48.962;8.342;2022-07-06T11:34:51;31.90;38.90
33825;DHT22;20127;48.962;8.342;2022-07-06T11:37:54;32.30;38.10
33825;DHT22;20127;48.962;8.342;2022-07-06T11:40:56;32.50;37.60
33825;DHT22;20127;48.962;8.342;2022-07-06T11:43:58;32.40;37.40
33825;DHT22;20127;48.962;8.342;2022-07-06T11:46:59;32.30;37.70
33825;DHT22;20127;48.962;8.342;2022-07-06T11:50:04;32.30;37.70
33825;DHT22;20127;48.962;8.342;2022-07-06T11:53:08;32.50;37.50
33825;DHT22;20127;48.962;8.342;2022-07-06T11:56:11;32.70;36.90
33825;DHT22;20127;48.962;8.342;2022-07-06T11:59:13;32.50;37.00
33825;DHT22;20127;48.962;8.342;2022-07-06T12:02:16;32.10;37.60
33825;DHT22;20127;48.962;8.342;2022-07-06T12:05:29;31.60;37.90
33825;DHT22;20127;48.962;8.342;2022-07-06T12:08:32;31.30;38.70
33825;DHT22;20127;48.962;8.342;2022-07-06T12:11:44;31.20;38.10
33825;DHT22;20127;48.962;8.342;2022-07-06T12:14:47;31.00;38.10
33825;DHT22;20127;48.962;8.342;2022-07-06T12:17:49;31.20;38.70
33825;DHT22;20127;48.962;8.342;2022-07-06T12:20:52;31.50;38.70
33825;DHT22;20127;48.962;8.342;2022-07-06T12:23:57;31.90;37.40
33825;DHT22;20127;48.962;8.342;2022-07-06T12:27:09;32.30;37.10
33825;DHT22;20127;48.962;8.342;2022-07-06T12:30:13;32.40;37.00
33825;DHT22;20127;48.962;8.342;2022-07-06T12:33:16;32.50;37.20
33825;DHT22;20127;48.962;8.342;2022-07-06T12:36:18;32.20;37.10
33825;DHT22;20127;48.962;8.342;2022-07-06T12:39:23;32.00;37.20
33825;DHT22;20127;48.962;8.342;2022-07-06T12:42:24;32.10;37.30
33825;DHT22;20127;48.962;8.342;2022-07-06T12:45:27;32.40;36.80
33825;DHT22;20127;48.962;8.342;2022-07-06T12:48:29;32.50;36.40
33825;DHT22;20127;48.962;8.342;2022-07-06T12:51:49;32.70;36.30
33825;DHT22;20127;48.962;8.342;2022-07-06T12:54:52;33.10;36.10
33825;DHT22;20127;48.962;8.342;2022-07-06T12:57:55;33.30;35.80
33825;DHT22;20127;48.962;8.342;2022-07-06T13:00:57;33.60;35.10
33825;DHT22;20127;48.962;8.342;2022-07-06T13:03:58;33.80;34.90
33825;DHT22;20127;48.962;8.342;2022-07-06T13:07:01;33.90;34.60
33825;DHT22;20127;48.962;8.342;2022-07-06T13:10:06;34.20;34.20
33825;DHT22;20127;48.962;8.342;2022-07-06T13:13:08;34.50;34.10
33825;DHT22;20127;48.962;8.342;2022-07-06T13:16:10;34.70;33.60
33825;DHT22;20127;48.962;8.342;2022-07-06T13:19:12;34.80;33.30
33825;DHT22;20127;48.962;8.342;2022-07-06T13:22:14;34.90;32.80
33825;DHT22;20127;48.962;8.342;2022-07-06T13:25:17;34.70;32.00
33825;DHT22;20127;48.962;8.342;2022-07-06T13:28:19;34.60;32.10
33825;DHT22;20127;48.962;8.342;2022-07-06T13:31:20;34.30;32.10
33825;DHT22;20127;48.962;8.342;2022-07-06T13:34:22;34.00;31.80
33825;DHT22;20127;48.962;8.342;2022-07-06T13:37:25;33.90;31.90
33825;DHT22;20127;48.962;8.342;2022-07-06T13:40:28;33.80;31.80
33825;DHT22;20127;48.962;8.342;2022-07-06T13:43:29;33.70;31.70
33825;DHT22;20127;48.962;8.342;2022-07-06T13:46:36;33.60;31.70
33825;DHT22;20127;48.962;8.342;2022-07-06T13:49:38;33.70;31.70
33825;DHT22;20127;48.962;8.342;2022-07-06T13:52:40;33.90;31.70
33825;DHT22;20127;48.962;8.342;2022-07-06T13:55:43;34.30;31.40
33825;DHT22;20127;48.962;8.342;2022-07-06T13:58:44;34.40;31.30
33825;DHT22;20127;48.962;8.342;2022-07-06T14:01:46;34.40;31.00
33825;DHT22;20127;48.962;8.342;2022-07-06T14:04:48;34.60;31.30
33825;DHT22;20127;48.962;8.342;2022-07-06T14:07:50;34.70;31.10
33825;DHT22;20127;48.962;8.342;2022-07-06T14:10:53;34.70;30.90
33825;DHT22;20127;48.962;8.342;2022-07-06T14:13:55;34.60;30.90
33825;DHT22;20127;48.962;8.342;2022-07-06T14:16:57;34.50;30.60
33825;DHT22;20127;48.962;8.342;2022-07-06T14:19:58;34.30;30.40
33825;DHT22;20127;48.962;8.342;2022-07-06T14:23:00;34.10;30.60
33825;DHT22;20127;48.962;8.342;2022-07-06T14:26:03;34.10;30.80
33825;DHT22;20127;48.962;8.342;2022-07-06T14:29:05;34.20;30.50
33825;DHT22;20127;48.962;8.342;2022-07-06T14:32:07;34.50;31.10
33825;DHT22;20127;48.962;8.342;2022-07-06T14:35:09;34.80;30.50
33825;DHT22;20127;48.962;8.342;2022-07-06T14:38:11;34.80;30.40
33825;DHT22;20127;48.962;8.342;2022-07-06T14:41:14;34.60;30.50
33825;DHT22;20127;48.962;8.342;2022-07-06T14:44:15;34.30;30.90
33825;DHT22;20127;48.962;8.342;2022-07-06T14:47:17;34.10;30.90
33825;DHT22;20127;48.962;8.342;2022-07-06T14:50:19;34.00;31.20
33825;DHT22;20127;48.962;8.342;2022-07-06T14:53:23;33.70;31.30
33825;DHT22;20127;48.962;8.342;2022-07-06T14:56:27;33.40;31.60
33825;DHT22;20127;48.962;8.342;2022-07-06T14:59:28;33.30;31.50
33825;DHT22;20127;48.962;8.342;2022-07-06T15:02:30;33.00;31.30
33825;DHT22;20127;48.962;8.342;2022-07-06T15:05:32;32.90;31.50
33825;DHT22;20127;48.962;8.342;2022-07-06T15:08:34;33.00;32.00
33825;DHT22;20127;48.962;8.342;2022-07-06T15:11:37;33.10;31.60
33825;DHT22;20127;48.962;8.342;2022-07-06T15:14:39;33.10;30.80
33825;DHT22;20127;48.962;8.342;2022-07-06T15:17:40;33.00;31.60
33825;DHT22;20127;48.962;8.342;2022-07-06T15:20:42;33.00;31.40
33825;DHT22;20127;48.962;8.342;2022-07-06T15:23:44;32.90;31.40
33825;DHT22;20127;48.962;8.342;2022-07-06T15:26:47;32.80;31.80
33825;DHT22;20127;48.962;8.342;2022-07-06T15:29:49;32.60;31.40
33825;DHT22;20127;48.962;8.342;2022-07-06T15:32:50;32.40;31.10
33825;DHT22;20127;48.962;8.342;2022-07-06T15:35:52;32.00;31.70
33825;DHT22;20127;48.962;8.342;2022-07-06T15:38:54;31.70;32.10
33825;DHT22;20127;48.962;8.342;2022-07-06T15:41:57;31.60;32.30
33825;DHT22;20127;48.962;8.342;2022-07-06T15:44:59;31.50;31.90
33825;DHT22;20127;48.962;8.342;2022-07-06T15:48:00;31.60;32.20
33825;DHT22;20127;48.962;8.342;2022-07-06T15:51:03;31.60;31.90
33825;DHT22;20127;48.962;8.342;2022-07-06T15:54:04;31.60;31.80
33825;DHT22;20127;48.962;8.342;2022-07-06T15:57:08;31.50;31.70
33825;DHT22;20127;48.962;8.342;2022-07-06T16:00:10;31.30;31.60
33825;DHT22;20127;48.962;8.342;2022-07-06T16:03:12;31.10;32.30
33825;DHT22;20127;48.962;8.342;2022-07-06T16:06:14;30.80;32.40
33825;DHT22;20127;48.962;8.342;2022-07-06T16:09:16;30.60;32.80
33825;DHT22;20127;48.962;8.342;2022-07-06T16:12:19;30.30;32.80
33825;DHT22;20127;48.962;8.342;2022-07-06T16:15:21;30.10;32.90
33825;DHT22;20127;48.962;8.342;2022-07-06T16:18:24;30.00;33.30
33825;DHT22;20127;48.962;8.342;2022-07-06T16:21:25;29.70;33.20
33825;DHT22;20127;48.962;8.342;2022-07-06T16:24:27;29.50;33.60
33825;DHT22;20127;48.962;8.342;2022-07-06T16:27:30;29.40;33.60
33825;DHT22;20127;48.962;8.342;2022-07-06T16:30:32;29.20;33.80
33825;DHT22;20127;48.962;8.342;2022-07-06T16:33:34;29.00;33.80
33825;DHT22;20127;48.962;8.342;2022-07-06T16:36:37;28.80;34.60
33825;DHT22;20127;48.962;8.342;2022-07-06T16:39:38;28.60;35.20
33825;DHT22;20127;48.962;8.342;2022-07-06T16:42:44;28.60;35.20
33825;DHT22;20127;48.962;8.342;2022-07-06T16:45:46;28.50;35.70
33825;DHT22;20127;48.962;8.342;2022-07-06T16:48:48;28.50;36.40
33825;DHT22;20127;48.962;8.342;2022-07-06T16:51:49;28.50;36.50
33825;DHT22;20127;48.962;8.342;2022-07-06T16:54:51;28.40;35.90
33825;DHT22;20127;48.962;8.342;2022-07-06T16:57:54;28.40;35.90
33825;DHT22;20127;48.962;8.342;2022-07-06T17:00:57;28.30;36.30
33825;DHT22;20127;48.962;8.342;2022-07-06T17:03:59;28.10;36.70
33825;DHT22;20127;48.962;8.342;2022-07-06T17:07:01;28.20;36.30
33825;DHT22;20127;48.962;8.342;2022-07-06T17:10:03;28.20;35.90
33825;DHT22;20127;48.962;8.342;2022-07-06T17:13:07;28.10;35.90
33825;DHT22;20127;48.962;8.342;2022-07-06T17:16:08;28.00;36.40
33825;DHT22;20127;48.962;8.342;2022-07-06T17:19:10;27.80;36.70
33825;DHT22;20127;48.962;8.342;2022-07-06T17:23:36;27.80;36.20
33825;DHT22;20127;48.962;8.342;2022-07-06T17:26:03;27.80;36.30
33825;DHT22;20127;48.962;8.342;2022-07-06T17:43:44;26.60;37.90
33825;DHT22;20127;48.962;8.342;2022-07-06T17:50:38;26.30;39.00
33825;DHT22;20127;48.962;8.342;2022-07-06T17:53:41;26.20;38.80
33825;DHT22;20127;48.962;8.342;2022-07-06T17:57:06;26.10;39.20
33825;DHT22;20127;48.962;8.342;2022-07-06T18:00:59;26.00;39.70
33825;DHT22;20127;48.962;8.342;2022-07-06T18:04:42;25.80;39.60
33825;DHT22;20127;48.962;8.342;2022-07-06T18:08:34;25.70;39.80
33825;DHT22;20127;48.962;8.342;2022-07-06T18:11:54;25.60;40.30
33825;DHT22;20127;48.962;8.342;2022-07-06T18:14:56;25.40;40.50
33825;DHT22;20127;48.962;8.342;2022-07-06T18:25:34;24.80;41.50
33825;DHT22;20127;48.962;8.342;2022-07-06T18:28:38;24.70;41.90
33825;DHT22;20127;48.962;8.342;2022-07-06T18:31:51;24.60;42.20
33825;DHT22;20127;48.962;8.342;2022-07-06T18:34:57;24.60;42.10
33825;DHT22;20127;48.962;8.342;2022-07-06T18:38:01;24.50;42.40
33825;DHT22;20127;48.962;8.342;2022-07-06T18:41:25;24.50;42.50
33825;DHT22;20127;48.962;8.342;2022-07-06T18:52:48;24.20;42.70
33825;DHT22;20127;48.962;8.342;2022-07-06T19:16:04;23.20;44.70
33825;DHT22;20127;48.962;8.342;2022-07-06T19:19:12;23.10;45.60
33825;DHT22;20127;48.962;8.342;2022-07-06T19:23:00;22.90;45.50
33825;DHT22;20127;48.962;8.342;2022-07-06T19:26:19;22.80;46.30
33825;DHT22;20127;48.962;8.342;2022-07-06T19:29:57;22.70;46.80
33825;DHT22;20127;48.962;8.342;2022-07-06T19:37:32;22.40;48.50
33825;DHT22;20127;48.962;8.342;2022-07-06T19:40:34;22.20;49.10
33825;DHT22;20127;48.962;8.342;2022-07-06T19:43:47;22.10;49.90
33825;DHT22;20127;48.962;8.342;2022-07-06T19:51:00;21.70;51.70
33825;DHT22;20127;48.962;8.342;2022-07-06T19:54:06;21.50;52.30
33825;DHT22;20127;48.962;8.342;2022-07-06T19:57:13;21.30;53.20
33825;DHT22;20127;48.962;8.342;2022-07-06T20:00:37;21.00;54.00
33825;DHT22;20127;48.962;8.342;2022-07-06T20:03:44;20.80;54.60
33825;DHT22;20127;48.962;8.342;2022-07-06T20:06:56;20.60;55.50
33825;DHT22;20127;48.962;8.342;2022-07-06T20:10:09;20.40;56.30
33825;DHT22;20127;48.962;8.342;2022-07-06T20:13:11;20.20;57.10
33825;DHT22;20127;48.962;8.342;2022-07-06T20:16:13;20.00;57.80
33825;DHT22;20127;48.962;8.342;2022-07-06T20:19:15;19.80;58.30
33825;DHT22;20127;48.962;8.342;2022-07-06T20:22:18;19.60;59.20
33825;DHT22;20127;48.962;8.342;2022-07-06T20:25:21;19.40;60.00
33825;DHT22;20127;48.962;8.342;2022-07-06T20:28:24;19.30;61.10
33825;DHT22;20127;48.962;8.342;2022-07-06T20:31:26;19.10;61.30
33825;DHT22;20127;48.962;8.342;2022-07-06T20:34:28;18.90;62.20
33825;DHT22;20127;48.962;8.342;2022-07-06T20:37:29;18.80;62.80
33825;DHT22;20127;48.962;8.342;2022-07-06T20:40:33;18.70;63.80
33825;DHT22;20127;48.962;8.342;2022-07-06T20:43:34;18.60;64.10
33825;DHT22;20127;48.962;8.342;2022-07-06T20:46:36;18.40;64.90
33825;DHT22;20127;48.962;8.342;2022-07-06T20:49:38;18.30;65.70
33825;DHT22;20127;48.962;8.342;2022-07-06T20:52:40;18.30;66.80
33825;DHT22;20127;48.962;8.342;2022-07-06T20:55:43;18.20;67.50
33825;DHT22;20127;48.962;8.342;2022-07-06T20:58:44;18.10;68.10
33825;DHT22;20127;48.962;8.342;2022-07-06T21:01:46;18.00;68.90
33825;DHT22;20127;48.962;8.342;2022-07-06T21:04:48;17.80;69.90
33825;DHT22;20127;48.962;8.342;2022-07-06T21:07:50;17.80;70.00
33825;DHT22;20127;48.962;8.342;2022-07-06T21:10:53;17.60;71.30
33825;DHT22;20127;48.962;8.342;2022-07-06T21:13:55;17.50;71.70
33825;DHT22;20127;48.962;8.342;2022-07-06T21:16:57;17.40;72.90
33825;DHT22;20127;48.962;8.342;2022-07-06T21:19:58;17.30;74.30
33825;DHT22;20127;48.962;8.342;2022-07-06T21:23:00;17.20;74.70
33825;DHT22;20127;48.962;8.342;2022-07-06T21:26:04;17.10;75.70
33825;DHT22;20127;48.962;8.342;2022-07-06T21:29:06;17.00;76.30
33825;DHT22;20127;48.962;8.342;2022-07-06T21:32:08;17.00;77.20
33825;DHT22;20127;48.962;8.342;2022-07-06T21:35:10;16.90;77.80
33825;DHT22;20127;48.962;8.342;2022-07-06T21:38:12;16.80;79.10
33825;DHT22;20127;48.962;8.342;2022-07-06T21:41:15;16.70;79.80
33825;DHT22;20127;48.962;8.342;2022-07-06T21:44:17;16.70;80.80
33825;DHT22;20127;48.962;8.342;2022-07-06T21:47:19;16.70;81.50
33825;DHT22;20127;48.962;8.342;2022-07-06T21:50:21;16.60;82.10
33825;DHT22;20127;48.962;8.342;2022-07-06T21:53:23;16.60;82.60
33825;DHT22;20127;48.962;8.342;2022-07-06T21:56:26;16.60;83.20
33825;DHT22;20127;48.962;8.342;2022-07-06T21:59:28;16.60;83.70
33825;DHT22;20127;48.962;8.342;2022-07-06T22:02:30;16.50;84.20
33825;DHT22;20127;48.962;8.342;2022-07-06T22:05:32;16.50;84.70
33825;DHT22;20127;48.962;8.342;2022-07-06T22:08:34;16.40;84.80
33825;DHT22;20127;48.962;8.342;2022-07-06T22:11:37;16.30;85.50
33825;DHT22;20127;48.962;8.342;2022-07-06T22:14:39;16.30;86.10
33825;DHT22;20127;48.962;8.342;2022-07-06T22:17:40;16.30;87.00
33825;DHT22;20127;48.962;8.342;2022-07-06T22:20:42;16.20;87.30
33825;DHT22;20127;48.962;8.342;2022-07-06T22:23:44;16.10;87.90
33825;DHT22;20127;48.962;8.342;2022-07-06T22:26:47;16.00;88.00
33825;DHT22;20127;48.962;8.342;2022-07-06T22:29:49;15.90;88.80
33825;DHT22;20127;48.962;8.342;2022-07-06T22:32:51;15.90;89.30